Time;durP1;ratioP1;P1;durP2;ratioP2;P2;SDS_P1;SDS_P2;PMS_P1;PMS_P2;Temp;Humidity;BMP_temperature;BMP_pressure;BME280_temperature;BME280_humidity;BME280_pressure;Samples;Min_cycle;Max_cycle;Signal;HPM_P1;HPM_P2
2022/12/01 00:00:32;;;;;;;14.82;9.20;;;;;;;;;;5015628;28;20108;-79
2022/12/01 00:02:58;;;;;;;13.88;9.82;;;;;;;;;;5030478;28;20034;-80
2022/12/01 00:05:23;;;;;;;15.70;9.85;;;;;;;;;;5014722;28;20394;-80
2022/12/01 00:07:49;;;;;;;16.00;9.90;;;;;;;;;;5015235;28;20472;-80
2022/12/01 00:10:27;;;;;;;12.07;9.50;;;;;;;;;;5015120;28;20089;-79
2022/12/01 00:12:56;;;;;;;15.95;10.30;;;;;;;;;;5029010;28;20209;-79
2022/12/01 00:15:24;;;;;;;16.45;10.00;;;;;;;;;;5015240;28;20025;-79
2022/12/01 00:17:50;;;;;;;13.23;9.27;;;;;;;;;;5015509;28;20132;-80
2022/12/01 00:20:16;;;;;;;14.45;9.82;;;;;;;;;;5030051;28;20060;-80
2022/12/01 00:22:45;;;;;;;14.45;9.65;;;;;;;;;;5030430;28;20018;-80
2022/12/01 00:25:12;;;;;;;14.95;8.82;;;;;;;;;;5029421;28;20034;-79
2022/12/01 00:27:38;;;;;;;13.10;9.15;;;;;;;;;;5029936;28;20033;-79
2022/12/01 00:30:05;;;;;;;13.15;8.82;;;;;;;;;;5013687;28;20036;-79
2022/12/01 00:32:30;;;;;;;13.15;9.40;;;;;;;;;;5029881;28;20033;-79
2022/12/01 00:34:56;;;;;;;15.35;9.13;;;;;;;;;;5013539;28;20480;-79
2022/12/01 00:37:21;;;;;;;15.15;9.80;;;;;;;;;;5014665;28;20069;-80
2022/12/01 00:39:47;;;;;;;15.60;10.13;;;;;;;;;;5013951;28;20069;-80
2022/12/01 00:42:12;;;;;;;15.63;9.73;;;;;;;;;;5014786;28;20081;-81
2022/12/01 00:44:37;;;;;;;12.60;9.38;;;;;;;;;;5014436;28;20025;-83
2022/12/01 00:47:03;;;;;;;12.55;9.13;;;;;;;;;;5014474;28;20428;-81
2022/12/01 00:49:28;;;;;;;15.15;9.27;;;;;;;;;;5014933;28;20030;-81
2022/12/01 00:51:53;;;;;;;14.93;9.45;;;;;;;;;;5014790;28;20484;-82
2022/12/01 00:54:19;;;;;;;14.73;9.98;;;;;;;;;;5014126;28;20529;-81
2022/12/01 00:56:44;;;;;;;12.82;9.07;;;;;;;;;;5014281;28;20127;-81
2022/12/01 00:59:10;;;;;;;13.57;9.50;;;;;;;;;;5014773;28;20496;-81
2022/12/01 01:01:36;;;;;;;12.35;9.10;;;;;;;;;;5013069;28;20041;-81
2022/12/01 01:04:01;;;;;;;11.80;8.45;;;;;;;;;;5014701;28;20025;-81
2022/12/01 01:06:27;;;;;;;15.18;9.30;;;;;;;;;;5014185;28;20029;-81
2022/12/01 01:08:52;;;;;;;13.07;9.32;;;;;;;;;;5029561;28;20108;-81
2022/12/01 01:11:18;;;;;;;12.82;8.90;;;;;;;;;;5012689;28;20385;-80
2022/12/01 01:13:43;;;;;;;12.57;9.10;;;;;;;;;;5012575;28;20068;-80
2022/12/01 01:16:15;;;;;;;14.40;9.38;;;;;;;;;;5014223;28;20382;-80
2022/12/01 01:18:41;;;;;;;14.63;9.40;;;;;;;;;;5012826;28;20053;-80
2022/12/01 01:21:09;;;;;;;13.50;9.38;;;;;;;;;;5014104;28;20068;-80
2022/12/01 01:23:35;;;;;;;12.63;8.98;;;;;;;;;;5029329;28;20021;-81
2022/12/01 01:26:03;;;;;;;12.77;9.38;;;;;;;;;;5013691;28;20045;-80
2022/12/01 01:28:29;;;;;;;12.80;9.13;;;;;;;;;;5029216;28;20087;-80
2022/12/01 01:30:54;;;;;;;13.02;9.45;;;;;;;;;;5029050;28;20057;-80
2022/12/01 01:33:20;;;;;;;13.70;9.02;;;;;;;;;;5014105;28;20124;-80
2022/12/01 01:35:45;;;;;;;13.32;9.10;;;;;;;;;;5029523;28;20038;-80
2022/12/01 01:38:10;;;;;;;12.77;8.95;;;;;;;;;;5013556;28;20026;-80
2022/12/01 01:40:44;;;;;;;12.98;9.70;;;;;;;;;;5028975;28;20061;-80
2022/12/01 01:43:17;;;;;;;14.25;9.70;;;;;;;;;;5028695;28;20034;-80
2022/12/01 01:45:43;;;;;;;12.30;9.13;;;;;;;;;;5029084;28;20120;-80
2022/12/01 01:48:10;;;;;;;15.70;9.70;;;;;;;;;;5013991;28;20157;-80
2022/12/01 01:50:36;;;;;;;13.75;9.48;;;;;;;;;;5028633;28;20022;-80
2022/12/01 01:53:04;;;;;;;13.45;9.30;;;;;;;;;;5013340;28;20491;-80
2022/12/01 01:55:31;;;;;;;16.10;8.93;;;;;;;;;;5028648;28;20034;-79
2022/12/01 01:57:56;;;;;;;13.25;9.68;;;;;;;;;;5012019;28;20404;-80
2022/12/01 02:00:21;;;;;;;13.20;9.38;;;;;;;;;;5012077;28;20038;-80
2022/12/01 02:02:48;;;;;;;12.95;9.15;;;;;;;;;;5028983;28;20380;-80
2022/12/01 02:05:19;;;;;;;14.38;9.13;;;;;;;;;;5028993;28;20460;-80
2022/12/01 02:07:46;;;;;;;14.52;9.43;;;;;;;;;;5028456;28;20022;-79
2022/12/01 02:10:12;;;;;;;13.75;9.10;;;;;;;;;;5013466;28;20026;-79
2022/12/01 02:13:03;;;;;;;17.38;9.55;;;;;;;;;;5028243;28;20052;-82
2022/12/01 02:15:35;;;;;;;13.50;9.05;;;;;;;;;;5012201;28;20032;-80
2022/12/01 02:18:20;;;;;;;14.00;9.60;;;;;;;;;;5028190;28;20064;-82
2022/12/01 02:21:07;;;;;;;15.70;10.05;;;;;;;;;;5028376;28;20022;-81
2022/12/01 02:23:35;;;;;;;14.77;9.75;;;;;;;;;;5011835;28;20024;-81
2022/12/01 02:26:28;;;;;;;15.95;9.80;;;;;;;;;;5013174;28;20061;-80
2022/12/01 02:29:21;;;;;;;13.13;9.45;;;;;;;;;;5012510;28;20026;-80
2022/12/01 02:31:56;;;;;;;19.00;9.88;;;;;;;;;;5012964;28;20022;-80
2022/12/01 02:34:27;;;;;;;11.95;8.85;;;;;;;;;;5028521;28;20029;-80
2022/12/01 02:37:04;;;;;;;15.05;9.60;;;;;;;;;;5028218;28;20384;-80
2022/12/01 02:40:13;;;;;;;15.85;9.38;;;;;;;;;;5028466;28;20092;-81
2022/12/01 02:42:53;;;;;;;14.73;9.18;;;;;;;;;;4936987;29;20029;-80
2022/12/01 02:45:38;;;;;;;16.27;9.70;;;;;;;;;;4938517;29;20107;-81
2022/12/01 02:48:07;;;;;;;16.42;10.48;;;;;;;;;;4937062;29;20023;-81
2022/12/01 02:50:34;;;;;;;12.05;8.50;;;;;;;;;;4940195;29;20039;-81
2022/12/01 02:53:02;;;;;;;15.38;9.77;;;;;;;;;;4940071;29;20055;-82
2022/12/01 02:55:27;;;;;;;14.02;9.73;;;;;;;;;;4940177;29;20190;-81
2022/12/01 02:57:53;;;;;;;16.05;10.30;;;;;;;;;;4939994;29;20056;-82
2022/12/01 03:00:19;;;;;;;13.90;9.27;;;;;;;;;;4940360;29;20027;-82
2022/12/01 03:03:16;;;;;;;20.92;9.07;;;;;;;;;;4940285;29;20043;-81
2022/12/01 03:05:44;;;;;;;14.38;9.15;;;;;;;;;;4956101;29;20043;-81
2022/12/01 03:08:18;;;;;;;13.98;9.07;;;;;;;;;;4955944;29;20050;-81
2022/12/01 03:10:55;;;;;;;17.40;9.60;;;;;;;;;;4956329;29;20526;-80
2022/12/01 03:13:31;;;;;;;13.75;9.27;;;;;;;;;;4940074;29;20557;-80
2022/12/01 03:16:00;;;;;;;14.73;9.75;;;;;;;;;;4959129;28;20048;-80
2022/12/01 03:18:47;;;;;;;14.73;10.07;;;;;;;;;;5031410;28;20026;-80
2022/12/01 03:21:20;;;;;;;16.13;9.63;;;;;;;;;;5014875;28;20117;-80
2022/12/01 03:24:01;;;;;;;15.40;10.23;;;;;;;;;;5031633;28;20034;-80
2022/12/01 03:26:28;;;;;;;16.60;10.82;;;;;;;;;;5014724;28;20034;-80
2022/12/01 03:28:56;;;;;;;14.32;10.23;;;;;;;;;;5016433;28;20029;-81
2022/12/01 03:31:25;;;;;;;14.38;10.25;;;;;;;;;;5014796;28;20022;-80
2022/12/01 03:34:00;;;;;;;19.13;10.65;;;;;;;;;;5014705;28;20030;-81
2022/12/01 03:36:55;;;;;;;15.80;10.20;;;;;;;;;;5014883;28;20030;-80
2022/12/01 03:39:24;;;;;;;16.08;10.02;;;;;;;;;;5007231;28;20049;-80
2022/12/01 03:42:16;;;;;;;13.52;9.50;;;;;;;;;;5014728;28;20029;-80
2022/12/01 03:44:48;;;;;;;17.58;9.68;;;;;;;;;;5015850;28;20049;-80
2022/12/01 03:47:18;;;;;;;18.02;10.27;;;;;;;;;;5015784;28;20025;-80
2022/12/01 03:49:44;;;;;;;14.95;9.90;;;;;;;;;;5014656;28;20032;-81
2022/12/01 03:52:19;;;;;;;13.02;9.20;;;;;;;;;;5030864;28;20477;-80
2022/12/01 03:55:10;;;;;;;16.27;10.38;;;;;;;;;;5030598;28;20053;-81
2022/12/01 03:57:51;;;;;;;13.93;9.45;;;;;;;;;;5014087;28;20079;-80
2022/12/01 04:00:17;;;;;;;17.38;10.60;;;;;;;;;;5030604;28;20029;-80
2022/12/01 04:02:47;;;;;;;13.60;9.50;;;;;;;;;;5014415;28;20018;-80
2022/12/01 04:05:13;;;;;;;15.73;10.05;;;;;;;;;;5030112;28;20036;-80
2022/12/01 04:07:39;;;;;;;15.40;10.07;;;;;;;;;;5014097;28;20029;-80
2022/12/01 04:10:05;;;;;;;16.75;9.65;;;;;;;;;;5013959;28;20484;-81
2022/12/01 04:12:33;;;;;;;15.90;9.73;;;;;;;;;;5030874;28;20448;-81
2022/12/01 04:15:05;;;;;;;14.73;9.68;;;;;;;;;;4998473;28;20100;-80
2022/12/01 04:17:30;;;;;;;14.05;10.05;;;;;;;;;;5030296;28;20041;-81
2022/12/01 04:19:56;;;;;;;15.75;10.38;;;;;;;;;;4997441;28;20040;-80
2022/12/01 04:22:22;;;;;;;16.67;10.90;;;;;;;;;;5015242;28;20363;-80
2022/12/01 04:24:48;;;;;;;15.90;10.55;;;;;;;;;;5014006;28;20061;-80
2022/12/01 04:27:13;;;;;;;14.35;9.68;;;;;;;;;;4997520;28;20065;-80
2022/12/01 04:29:38;;;;;;;14.50;10.00;;;;;;;;;;5015325;28;20041;-80
2022/12/01 04:32:04;;;;;;;14.65;9.93;;;;;;;;;;4997209;28;20041;-80
2022/12/01 04:34:29;;;;;;;16.42;10.68;;;;;;;;;;5015017;28;20100;-81
2022/12/01 04:36:55;;;;;;;16.00;10.82;;;;;;;;;;4997142;28;20042;-80
2022/12/01 04:39:20;;;;;;;16.10;9.98;;;;;;;;;;5014717;28;20030;-80
2022/12/01 04:41:46;;;;;;;15.13;9.80;;;;;;;;;;5029867;28;20025;-80
2022/12/01 04:44:11;;;;;;;14.35;9.65;;;;;;;;;;5014665;28;20097;-80
2022/12/01 04:46:37;;;;;;;15.05;10.30;;;;;;;;;;5014845;28;20030;-80
2022/12/01 04:49:03;;;;;;;15.60;9.48;;;;;;;;;;5013415;28;20048;-80
2022/12/01 04:51:28;;;;;;;16.60;10.48;;;;;;;;;;5030229;28;20475;-80
2022/12/01 04:53:54;;;;;;;15.88;10.15;;;;;;;;;;5013051;28;20061;-80
2022/12/01 04:56:19;;;;;;;18.48;10.98;;;;;;;;;;5013330;28;20037;-81
2022/12/01 04:58:44;;;;;;;17.88;10.60;;;;;;;;;;5014351;28;20429;-80
2022/12/01 05:01:12;;;;;;;16.83;10.45;;;;;;;;;;5014529;28;20365;-79
2022/12/01 05:03:38;;;;;;;14.60;9.70;;;;;;;;;;5014384;28;20025;-80
2022/12/01 05:06:06;;;;;;;16.73;10.68;;;;;;;;;;5029710;28;20552;-79
2022/12/01 05:08:33;;;;;;;19.70;10.75;;;;;;;;;;5014367;28;20559;-80
2022/12/01 05:10:58;;;;;;;15.82;9.57;;;;;;;;;;5012910;28;20080;-80
2022/12/01 05:13:24;;;;;;;17.88;10.27;;;;;;;;;;5014484;28;20034;-84
2022/12/01 05:15:49;;;;;;;19.02;10.77;;;;;;;;;;5013164;28;20037;-82
2022/12/01 05:18:14;;;;;;;21.95;11.07;;;;;;;;;;5013067;28;20030;-82
2022/12/01 05:20:58;;;;;;;18.65;10.55;;;;;;;;;;5014279;28;20034;-82
2022/12/01 05:23:28;;;;;;;17.05;10.38;;;;;;;;;;5013451;28;20022;-81
2022/12/01 05:25:54;;;;;;;19.15;10.23;;;;;;;;;;5014618;28;20036;-81
2022/12/01 05:28:20;;;;;;;18.65;9.88;;;;;;;;;;4996496;28;20038;-81
2022/12/01 05:30:45;;;;;;;21.08;9.50;;;;;;;;;;5029585;28;20031;-80
2022/12/01 05:33:11;;;;;;;19.23;10.30;;;;;;;;;;5014233;28;20041;-78
2022/12/01 05:35:36;;;;;;;21.85;10.05;;;;;;;;;;4996850;28;20101;-78
2022/12/01 05:38:02;;;;;;;22.98;10.05;;;;;;;;;;5012888;28;20030;-78
2022/12/01 05:40:29;;;;;;;23.48;10.77;;;;;;;;;;5013119;28;20117;-78
2022/12/01 05:42:55;;;;;;;20.02;10.82;;;;;;;;;;5012941;28;20034;-82
2022/12/01 05:45:20;;;;;;;21.15;10.27;;;;;;;;;;5014155;28;20037;-79
2022/12/01 05:47:46;;;;;;;26.98;11.00;;;;;;;;;;4997014;28;20038;-78
2022/12/01 05:50:11;;;;;;;25.23;10.50;;;;;;;;;;5014195;28;20466;-79
2022/12/01 05:52:36;;;;;;;20.33;10.32;;;;;;;;;;5014587;28;20054;-79
2022/12/01 05:55:03;;;;;;;21.85;11.30;;;;;;;;;;5013851;28;20145;-81
2022/12/01 05:57:29;;;;;;;29.15;12.23;;;;;;;;;;5012717;28;20120;-80
2022/12/01 05:59:55;;;;;;;30.40;12.55;;;;;;;;;;4980067;28;20041;-84
2022/12/01 06:02:20;;;;;;;43.58;13.43;;;;;;;;;;5014032;28;20030;-83
2022/12/01 06:04:46;;;;;;;34.15;13.57;;;;;;;;;;5013113;28;20060;-80
2022/12/01 06:07:11;;;;;;;41.35;13.00;;;;;;;;;;5014400;28;20037;-81
2022/12/01 06:09:36;;;;;;;38.05;13.15;;;;;;;;;;5013587;28;20037;-81
2022/12/01 06:12:02;;;;;;;30.00;12.90;;;;;;;;;;5012556;28;20044;-81
2022/12/01 06:14:27;;;;;;;30.60;12.57;;;;;;;;;;5012757;28;20084;-83
2022/12/01 06:16:52;;;;;;;30.52;12.35;;;;;;;;;;5014155;28;20034;-81
2022/12/01 06:19:18;;;;;;;39.05;13.02;;;;;;;;;;5028767;28;20080;-83
2022/12/01 06:21:43;;;;;;;25.77;12.15;;;;;;;;;;5013851;28;20029;-83
2022/12/01 06:24:11;;;;;;;25.00;11.98;;;;;;;;;;4998551;28;20030;-84
2022/12/01 06:26:36;;;;;;;25.48;12.75;;;;;;;;;;5017567;28;20030;-83
2022/12/01 06:29:02;;;;;;;29.83;13.27;;;;;;;;;;5016113;28;20032;-82
2022/12/01 06:31:27;;;;;;;33.58;12.82;;;;;;;;;;5017378;28;20038;-82
2022/12/01 06:33:52;;;;;;;25.65;12.88;;;;;;;;;;5017387;28;20029;-83
2022/12/01 06:36:18;;;;;;;24.70;12.77;;;;;;;;;;5016716;28;20049;-83
2022/12/01 06:38:43;;;;;;;25.05;12.95;;;;;;;;;;4999673;28;20034;-83
2022/12/01 06:41:09;;;;;;;22.50;12.70;;;;;;;;;;5016239;28;20036;-83
2022/12/01 06:43:36;;;;;;;23.70;11.73;;;;;;;;;;5016079;28;20026;-82
2022/12/01 06:46:03;;;;;;;27.30;12.70;;;;;;;;;;5017040;28;20021;-82
2022/12/01 06:48:29;;;;;;;23.13;11.82;;;;;;;;;;5032215;28;20033;-83
2022/12/01 06:50:58;;;;;;;24.95;12.35;;;;;;;;;;5017295;28;20041;-83
2022/12/01 06:53:26;;;;;;;25.70;12.70;;;;;;;;;;4983098;28;20408;-82
2022/12/01 06:55:51;;;;;;;28.13;12.45;;;;;;;;;;5016021;28;20037;-82
2022/12/01 06:58:17;;;;;;;25.23;12.98;;;;;;;;;;5015655;28;20172;-82
2022/12/01 07:00:42;;;;;;;21.10;12.38;;;;;;;;;;5016817;28;20548;-82
2022/12/01 07:03:08;;;;;;;23.67;11.70;;;;;;;;;;5016972;28;20045;-82
2022/12/01 07:05:33;;;;;;;20.67;11.45;;;;;;;;;;5032037;28;20036;-82
2022/12/01 07:07:59;;;;;;;23.60;11.80;;;;;;;;;;4999041;28;20037;-82
2022/12/01 07:10:26;;;;;;;20.90;11.45;;;;;;;;;;5016589;28;20477;-82
2022/12/01 07:12:51;;;;;;;19.30;11.23;;;;;;;;;;5016655;28;20113;-83
2022/12/01 07:15:17;;;;;;;19.58;11.07;;;;;;;;;;5016652;28;20121;-82
2022/12/01 07:17:42;;;;;;;24.95;10.95;;;;;;;;;;5016350;28;20030;-82
2022/12/01 07:20:09;;;;;;;21.98;11.15;;;;;;;;;;5015146;28;20045;-82
2022/12/01 07:22:35;;;;;;;18.85;11.85;;;;;;;;;;5017570;28;20029;-82
2022/12/01 07:25:00;;;;;;;23.63;11.63;;;;;;;;;;5016233;28;20129;-83
2022/12/01 07:27:30;;;;;;;20.38;11.95;;;;;;;;;;4998440;28;20449;-82
2022/12/01 07:29:55;;;;;;;19.52;11.30;;;;;;;;;;5014829;28;20033;-82
2022/12/01 07:32:21;;;;;;;18.85;11.05;;;;;;;;;;5014845;28;20038;-82
2022/12/01 07:34:46;;;;;;;19.80;11.77;;;;;;;;;;5016115;28;20025;-82
2022/12/01 07:37:11;;;;;;;19.45;11.05;;;;;;;;;;5016035;28;20066;-82
2022/12/01 07:39:37;;;;;;;18.38;11.60;;;;;;;;;;5016021;28;20057;-82
2022/12/01 07:42:02;;;;;;;18.65;11.32;;;;;;;;;;5014811;28;20036;-82
2022/12/01 07:44:28;;;;;;;20.35;11.98;;;;;;;;;;5016590;28;20463;-81
2022/12/01 07:46:53;;;;;;;21.70;11.88;;;;;;;;;;5014726;28;20034;-81
2022/12/01 07:49:19;;;;;;;18.45;10.65;;;;;;;;;;5016134;28;20044;-82
2022/12/01 07:51:44;;;;;;;18.17;11.02;;;;;;;;;;5015179;28;20116;-83
2022/12/01 07:54:13;;;;;;;20.00;12.00;;;;;;;;;;5015807;28;20062;-82
2022/12/01 07:56:38;;;;;;;20.17;11.35;;;;;;;;;;5014720;28;20034;-82
2022/12/01 07:59:04;;;;;;;18.25;11.15;;;;;;;;;;5014725;28;20104;-81
2022/12/01 08:01:29;;;;;;;19.83;11.52;;;;;;;;;;5014992;28;20038;-81
2022/12/01 08:03:56;;;;;;;21.60;11.57;;;;;;;;;;5014566;28;20030;-82
2022/12/01 08:06:22;;;;;;;21.33;12.23;;;;;;;;;;4997629;28;20075;-81
2022/12/01 08:08:48;;;;;;;20.10;11.15;;;;;;;;;;5014596;28;20033;-81
2022/12/01 08:11:16;;;;;;;20.77;11.63;;;;;;;;;;5014586;28;20029;-82
2022/12/01 08:13:42;;;;;;;21.40;12.57;;;;;;;;;;5014213;28;20447;-83
2022/12/01 08:16:11;;;;;;;23.27;13.20;;;;;;;;;;5015627;28;20080;-82
2022/12/01 08:18:38;;;;;;;21.17;12.45;;;;;;;;;;5014231;28;20032;-82
2022/12/01 08:21:04;;;;;;;21.65;12.68;;;;;;;;;;5016240;28;20033;-82
2022/12/01 08:23:30;;;;;;;23.83;13.30;;;;;;;;;;4997789;28;20073;-81
2022/12/01 08:26:00;;;;;;;26.17;13.65;;;;;;;;;;5014035;28;20443;-82
2022/12/01 08:28:25;;;;;;;20.27;12.93;;;;;;;;;;5013964;28;20476;-82
2022/12/01 08:30:51;;;;;;;20.92;12.85;;;;;;;;;;5030474;28;20084;-82
2022/12/01 08:33:16;;;;;;;21.50;12.60;;;;;;;;;;5031135;28;20433;-83
2022/12/01 08:35:41;;;;;;;21.83;13.88;;;;;;;;;;5015465;28;20330;-82
2022/12/01 08:38:08;;;;;;;21.20;13.48;;;;;;;;;;5014108;28;20037;-82
2022/12/01 08:40:33;;;;;;;24.92;12.88;;;;;;;;;;5015415;28;20026;-82
2022/12/01 08:42:58;;;;;;;25.25;13.52;;;;;;;;;;5015055;28;20037;-82
2022/12/01 08:45:24;;;;;;;23.88;13.48;;;;;;;;;;5012924;28;20473;-82
2022/12/01 08:47:49;;;;;;;23.13;13.88;;;;;;;;;;5013490;28;20038;-82
2022/12/01 08:50:15;;;;;;;23.70;13.45;;;;;;;;;;5030027;28;20111;-82
2022/12/01 08:52:40;;;;;;;24.50;13.15;;;;;;;;;;5013368;28;20404;-82
2022/12/01 08:55:06;;;;;;;22.13;12.68;;;;;;;;;;4996831;28;20089;-82
2022/12/01 08:57:32;;;;;;;23.02;15.05;;;;;;;;;;4998174;28;20503;-82
2022/12/01 08:59:57;;;;;;;24.08;14.27;;;;;;;;;;4996961;28;20038;-82
2022/12/01 09:02:22;;;;;;;26.63;14.35;;;;;;;;;;5014485;28;20033;-81
2022/12/01 09:04:51;;;;;;;25.02;14.50;;;;;;;;;;5014817;28;20037;-81
2022/12/01 09:07:17;;;;;;;24.10;13.88;;;;;;;;;;5014505;28;20088;-83
2022/12/01 09:09:44;;;;;;;23.33;13.85;;;;;;;;;;5014353;28;20028;-83
2022/12/01 09:12:10;;;;;;;25.02;14.85;;;;;;;;;;5013145;28;20497;-82
2022/12/01 09:14:38;;;;;;;25.90;14.80;;;;;;;;;;5013510;28;20028;-82
2022/12/01 09:17:03;;;;;;;24.02;13.80;;;;;;;;;;4996767;28;20064;-82
2022/12/01 09:19:29;;;;;;;24.52;13.95;;;;;;;;;;5013172;28;20481;-81
2022/12/01 09:21:55;;;;;;;25.00;14.57;;;;;;;;;;5013294;28;20117;-81
2022/12/01 09:24:20;;;;;;;28.55;15.23;;;;;;;;;;5013050;28;20037;-82
2022/12/01 09:26:46;;;;;;;23.85;14.20;;;;;;;;;;5014108;28;20022;-82
2022/12/01 09:29:12;;;;;;;26.98;15.88;;;;;;;;;;5014276;28;20034;-81
2022/12/01 09:31:38;;;;;;;23.90;14.70;;;;;;;;;;5012902;28;20022;-81
2022/12/01 09:34:06;;;;;;;22.30;13.82;;;;;;;;;;5012778;28;20388;-82
2022/12/01 09:36:33;;;;;;;25.55;15.48;;;;;;;;;;5013073;28;20061;-81
2022/12/01 09:38:59;;;;;;;26.30;14.35;;;;;;;;;;5012987;28;20022;-82
2022/12/01 09:41:33;;;;;;;23.35;14.77;;;;;;;;;;5013914;28;20049;-82
2022/12/01 09:44:13;;;;;;;25.05;14.63;;;;;;;;;;5013881;28;20141;-82
2022/12/01 09:47:05;;;;;;;25.73;14.23;;;;;;;;;;5014176;28;20030;-82
2022/12/01 09:49:42;;;;;;;28.45;14.98;;;;;;;;;;4996128;28;20091;-82
2022/12/01 09:52:13;;;;;;;25.17;15.32;;;;;;;;;;5013661;28;20025;-81
2022/12/01 09:54:38;;;;;;;26.35;15.00;;;;;;;;;;5012495;28;20093;-82
2022/12/01 09:57:04;;;;;;;22.77;14.82;;;;;;;;;;5012338;28;20041;-82
2022/12/01 09:59:39;;;;;;;23.70;15.40;;;;;;;;;;4999840;28;20037;-82
2022/12/01 10:02:39;;;;;;;23.95;15.05;;;;;;;;;;4996193;28;20120;-82
2022/12/01 10:05:11;;;;;;;26.00;15.15;;;;;;;;;;5008536;28;20524;-82
2022/12/01 10:07:45;;;;;;;26.48;15.40;;;;;;;;;;5013182;28;20026;-81
2022/12/01 10:10:14;;;;;;;25.90;15.88;;;;;;;;;;5013552;28;20022;-82
2022/12/01 10:12:41;;;;;;;28.30;15.15;;;;;;;;;;5012683;28;20028;-81
2022/12/01 10:15:33;;;;;;;24.20;15.43;;;;;;;;;;5013335;28;20044;-82
2022/12/01 10:18:17;;;;;;;24.13;15.10;;;;;;;;;;5014297;28;20049;-82
2022/12/01 10:20:55;;;;;;;23.45;15.13;;;;;;;;;;5013112;28;20033;-82
2022/12/01 10:23:34;;;;;;;26.98;15.55;;;;;;;;;;5013896;28;20026;-82
2022/12/01 10:26:06;;;;;;;27.38;16.38;;;;;;;;;;5013339;28;20495;-82
2022/12/01 10:28:52;;;;;;;29.20;16.75;;;;;;;;;;5015993;28;20049;-82
2022/12/01 10:31:26;;;;;;;24.52;15.07;;;;;;;;;;5013767;28;20033;-82
2022/12/01 10:33:59;;;;;;;26.80;16.58;;;;;;;;;;5014068;28;20022;-81
2022/12/01 10:36:26;;;;;;;25.67;15.47;;;;;;;;;;4996144;28;20029;-82
2022/12/01 10:38:51;;;;;;;27.63;15.80;;;;;;;;;;5012315;28;20166;-82
2022/12/01 10:41:18;;;;;;;26.35;16.75;;;;;;;;;;5012264;28;20120;-81
2022/12/01 10:43:46;;;;;;;28.50;16.45;;;;;;;;;;5012139;28;20026;-82
2022/12/01 10:46:36;;;;;;;27.55;15.70;;;;;;;;;;4995656;28;20384;-82
2022/12/01 10:49:10;;;;;;;23.33;14.70;;;;;;;;;;5011989;28;20080;-82
2022/12/01 10:51:45;;;;;;;;;;;;;;;;;;5012783;28;20389;-79
2022/12/01 10:54:11;;;;;;;22.95;13.98;;;;;;;;;;4995353;28;19952;-82
2022/12/01 10:56:39;;;;;;;23.48;15.25;;;;;;;;;;5012295;28;20053;-82
2022/12/01 10:59:34;;;;;;;25.60;15.35;;;;;;;;;;5012008;28;20025;-82
2022/12/01 11:02:00;;;;;;;25.30;15.70;;;;;;;;;;5013001;28;20472;-82
2022/12/01 11:04:46;;;;;;;22.17;15.07;;;;;;;;;;5013266;28;20073;-81
2022/12/01 11:07:23;;;;;;;24.55;14.65;;;;;;;;;;5011969;28;20018;-82
2022/12/01 11:10:13;;;;;;;22.17;14.20;;;;;;;;;;5013634;28;20025;-83
2022/12/01 11:12:40;;;;;;;23.23;14.70;;;;;;;;;;5016494;28;20026;-84
2022/12/01 11:15:06;;;;;;;24.63;15.68;;;;;;;;;;4998988;28;20036;-83
2022/12/01 11:17:36;;;;;;;21.35;14.25;;;;;;;;;;5017596;28;20029;-83
2022/12/01 11:20:30;;;;;;;21.85;13.88;;;;;;;;;;5015342;28;20079;-83
2022/12/01 11:23:25;;;;;;;24.05;13.70;;;;;;;;;;5016464;28;20032;-83
2022/12/01 11:26:26;;;;;;;20.90;13.27;;;;;;;;;;5015653;28;20349;-84
2022/12/01 11:28:54;;;;;;;21.27;13.82;;;;;;;;;;5016858;28;20113;-83
2022/12/01 11:31:21;;;;;;;20.17;13.60;;;;;;;;;;5015490;28;20397;-84
2022/12/01 11:33:50;;;;;;;22.23;13.60;;;;;;;;;;5016029;28;20068;-83
2022/12/01 11:36:21;;;;;;;22.75;13.75;;;;;;;;;;5015467;28;20025;-83
2022/12/01 11:38:46;;;;;;;22.02;13.35;;;;;;;;;;5016364;28;20358;-84
2022/12/01 11:41:26;;;;;;;18.35;12.25;;;;;;;;;;5016285;28;20037;-84
2022/12/01 11:43:51;;;;;;;21.33;12.30;;;;;;;;;;4998466;28;20026;-85
2022/12/01 11:46:27;;;;;;;20.20;13.15;;;;;;;;;;5015490;28;20040;-85
2022/12/01 11:48:57;;;;;;;21.80;13.68;;;;;;;;;;5014110;28;20025;-84
2022/12/01 11:51:22;;;;;;;19.60;12.68;;;;;;;;;;5015276;28;20030;-86
2022/12/01 11:53:48;;;;;;;19.55;11.93;;;;;;;;;;5014885;28;20045;-84
2022/12/01 11:56:27;;;;;;;19.52;11.77;;;;;;;;;;5013984;28;20105;-84
2022/12/01 11:59:02;;;;;;;19.23;12.70;;;;;;;;;;5013946;28;20112;-83
2022/12/01 12:01:44;;;;;;;16.67;11.38;;;;;;;;;;4998102;28;20460;-81
2022/12/01 12:04:47;;;;;;;19.05;12.27;;;;;;;;;;5014470;28;20041;-82
2022/12/01 12:07:29;;;;;;;19.80;11.50;;;;;;;;;;5014183;28;20048;-82
2022/12/01 12:10:36;;;;;;;17.77;12.45;;;;;;;;;;5015551;28;20133;-82
2022/12/01 12:13:04;;;;;;;19.65;11.80;;;;;;;;;;5001678;28;20117;-82
2022/12/01 12:15:38;;;;;;;20.25;11.35;;;;;;;;;;5015854;28;20108;-82
2022/12/01 12:18:13;;;;;;;18.92;11.52;;;;;;;;;;5014038;28;20472;-83
2022/12/01 12:20:44;;;;;;;17.80;12.07;;;;;;;;;;5012971;28;20030;-82
2022/12/01 12:23:55;;;;;;;17.58;12.30;;;;;;;;;;5014164;28;20022;-82
2022/12/01 12:26:27;;;;;;;21.65;12.52;;;;;;;;;;5012946;28;20040;-81
2022/12/01 12:29:17;;;;;;;19.27;12.00;;;;;;;;;;4997544;28;20496;-81
2022/12/01 12:32:18;;;;;;;19.60;12.48;;;;;;;;;;5014985;28;20495;-81
2022/12/01 12:35:22;;;;;;;22.40;12.85;;;;;;;;;;5013932;28;20033;-81
2022/12/01 12:38:29;;;;;;;18.98;12.07;;;;;;;;;;5013283;28;20128;-81
2022/12/01 12:41:12;;;;;;;19.67;11.75;;;;;;;;;;5013736;28;20030;-82
2022/12/01 12:44:02;;;;;;;18.83;12.88;;;;;;;;;;5013722;28;20420;-82
2022/12/01 12:46:30;;;;;;;17.23;11.80;;;;;;;;;;5013554;28;20494;-82
2022/12/01 12:49:06;;;;;;;18.42;11.63;;;;;;;;;;5014957;28;20107;-81
2022/12/01 12:52:10;;;;;;;19.92;11.63;;;;;;;;;;5013457;28;20080;-82
2022/12/01 12:54:48;;;;;;;17.23;11.70;;;;;;;;;;5013167;28;20080;-83
2022/12/01 12:57:19;;;;;;;17.83;11.57;;;;;;;;;;5014608;28;20026;-82
2022/12/01 12:59:52;;;;;;;18.02;11.60;;;;;;;;;;5014580;28;20095;-81
2022/12/01 13:02:25;;;;;;;16.80;11.38;;;;;;;;;;5013869;28;20030;-81
2022/12/01 13:05:15;;;;;;;18.13;11.75;;;;;;;;;;5013452;28;20045;-81
2022/12/01 13:07:43;;;;;;;19.45;12.35;;;;;;;;;;5013285;28;20033;-82
2022/12/01 13:10:21;;;;;;;16.40;10.80;;;;;;;;;;5014629;28;20026;-82
2022/12/01 13:12:54;;;;;;;16.85;11.27;;;;;;;;;;5013068;28;20022;-82
2022/12/01 13:15:20;;;;;;;19.90;11.87;;;;;;;;;;5013642;28;20049;-82
2022/12/01 13:18:17;;;;;;;17.20;10.95;;;;;;;;;;5012976;28;20440;-82
2022/12/01 13:20:43;;;;;;;16.52;10.65;;;;;;;;;;5010820;28;20121;-82
2022/12/01 13:23:13;;;;;;;16.45;10.50;;;;;;;;;;5012861;28;20122;-81
2022/12/01 13:25:39;;;;;;;16.92;10.60;;;;;;;;;;5013169;28;20033;-81
2022/12/01 13:28:14;;;;;;;16.13;10.73;;;;;;;;;;5012853;28;20034;-81
2022/12/01 13:30:39;;;;;;;16.73;11.30;;;;;;;;;;5012793;28;20057;-81
2022/12/01 13:33:05;;;;;;;15.38;11.00;;;;;;;;;;4996421;28;20068;-82
2022/12/01 13:35:34;;;;;;;16.13;11.18;;;;;;;;;;4996512;28;20038;-82
2022/12/01 13:38:19;;;;;;;16.35;11.07;;;;;;;;;;4996294;28;20076;-82
2022/12/01 13:40:44;;;;;;;16.17;10.98;;;;;;;;;;4996354;28;20028;-81
2022/12/01 13:43:28;;;;;;;16.67;10.73;;;;;;;;;;5012810;28;20026;-82
2022/12/01 13:46:01;;;;;;;16.65;11.05;;;;;;;;;;5012591;28;20030;-84
2022/12/01 13:48:49;;;;;;;15.52;10.93;;;;;;;;;;5013110;28;20029;-84
2022/12/01 13:51:15;;;;;;;14.70;10.43;;;;;;;;;;5013605;28;20049;-81
2022/12/01 13:54:00;;;;;;;15.63;10.52;;;;;;;;;;5012768;28;20415;-83
2022/12/01 13:56:33;;;;;;;14.93;10.75;;;;;;;;;;5015293;28;20105;-81
2022/12/01 13:58:59;;;;;;;15.38;10.20;;;;;;;;;;5012545;28;20485;-82
2022/12/01 14:01:24;;;;;;;16.48;10.35;;;;;;;;;;5014281;28;20034;-82
2022/12/01 14:04:17;;;;;;;14.38;9.73;;;;;;;;;;5013953;28;20037;-82
2022/12/01 14:06:48;;;;;;;14.65;9.73;;;;;;;;;;5028990;28;20032;-83
2022/12/01 14:09:30;;;;;;;12.50;8.35;;;;;;;;;;5029285;28;20017;-83
2022/12/01 14:11:57;;;;;;;15.00;9.35;;;;;;;;;;5030627;28;20484;-83
2022/12/01 14:14:24;;;;;;;14.27;10.07;;;;;;;;;;5014179;28;20034;-82
2022/12/01 14:16:57;;;;;;;16.50;9.63;;;;;;;;;;5026042;28;20037;-82
2022/12/01 14:19:31;;;;;;;15.32;9.80;;;;;;;;;;5048562;28;20398;-83
2022/12/01 14:21:58;;;;;;;11.70;8.48;;;;;;;;;;5033236;28;20084;-83
2022/12/01 14:24:29;;;;;;;13.15;9.02;;;;;;;;;;5048556;28;20017;-81
2022/12/01 14:26:54;;;;;;;15.52;9.52;;;;;;;;;;5020464;28;20027;-82
2022/12/01 14:29:27;;;;;;;12.77;8.73;;;;;;;;;;5010033;28;20081;-81
2022/12/01 14:32:01;;;;;;;14.98;9.43;;;;;;;;;;5028501;28;20109;-82
2022/12/01 14:34:28;;;;;;;;;;;;;;;;;;5029256;28;20065;-80
2022/12/01 14:37:05;;;;;;;14.35;8.90;;;;;;;;;;5011674;28;20279;-81
2022/12/01 14:39:37;;;;;;;13.98;8.90;;;;;;;;;;5028259;28;20036;-82
2022/12/01 14:44:02;;;;;;;13.00;8.93;;;;;;;;;;5028346;28;20022;-82